Airway Heights, Washington
Current Conditions -  °F | °C
As of 11:53 AM on Friday 24 Oct 2014 (Local Time) from KGEG Reporting Station
Broken Clouds Broken Clouds  
Wind Chill: 51°   Ceiling: 20000
Heat Index: 51°   Visibility: 10mi
Dew Point: 42°   Wind: 6mph
Humidity: 71%   Direction: 200°SSW
Pressure: 30.09"   Gusts: NA
Location:  47.64°N, 117.59°W
Report Text: KGEG 241853Z 20005KT 10SM FEW025 FEW050 BKN200 11/06 A3009 RMK AO2 SLP193 T01060056
Loading
Personal Weather Stations






























Interactive Weather Map New forecast layout! Learn more

10-Day Weather Forecast

Advertisements
Track Severe Weather on mobile